Time;durP1;ratioP1;P1;durP2;ratioP2;P2;SDS_P1;SDS_P2;PMS_P1;PMS_P2;Temp;Humidity;BMP_temperature;BMP_pressure;BME280_temperature;BME280_humidity;BME280_pressure;Samples;Min_cycle;Max_cycle;Signal;HPM_P1;HPM_P2
2023/07/31 08:07:42;;;;;;;3.35;2.58;;;;;;;;;;10635962;27;20059;-85
2023/07/31 08:12:43;;;;;;;4.60;2.90;;;;;;;;;;10631695;27;20019;-86
2023/07/31 08:17:45;;;;;;;4.00;2.60;;;;;;;;;;10630642;27;20106;-86
2023/07/31 08:23:17;;;;;;;6.72;3.05;;;;;;;;;;10616006;27;20027;-86
2023/07/31 08:28:40;;;;;;;4.80;2.80;;;;;;;;;;10627303;27;20031;-85
2023/07/31 08:33:47;;;;;;;3.95;2.45;;;;;;;;;;10624020;27;20478;-86
2023/07/31 08:39:12;;;;;;;5.22;2.50;;;;;;;;;;10629635;27;20520;-86
2023/07/31 08:44:21;;;;;;;4.63;3.00;;;;;;;;;;10634619;27;20070;-85
2023/07/31 08:49:26;;;;;;;4.50;2.53;;;;;;;;;;10636999;27;20027;-85
2023/07/31 08:54:33;;;;;;;6.03;3.13;;;;;;;;;;10635159;27;20091;-84
2023/07/31 08:59:54;;;;;;;3.90;2.30;;;;;;;;;;10644379;27;20054;-85
2023/07/31 09:05:13;;;;;;;5.40;3.13;;;;;;;;;;10672757;27;20043;-86
2023/07/31 09:10:14;;;;;;;6.13;2.50;;;;;;;;;;10661182;27;20125;-85
2023/07/31 09:15:16;;;;;;;4.68;2.20;;;;;;;;;;10670266;27;20033;-85
2023/07/31 09:20:18;;;;;;;4.35;2.58;;;;;;;;;;10686072;27;20032;-85
2023/07/31 09:25:20;;;;;;;4.53;2.47;;;;;;;;;;10689321;27;20033;-85
2023/07/31 09:30:21;;;;;;;4.90;2.40;;;;;;;;;;10689341;27;20034;-85
2023/07/31 09:35:23;;;;;;;3.20;2.22;;;;;;;;;;10691670;27;20041;-84
2023/07/31 09:40:28;;;;;;;6.03;2.50;;;;;;;;;;10710792;27;20082;-84
2023/07/31 09:45:30;;;;;;;4.80;2.40;;;;;;;;;;10710367;27;20029;-87
2023/07/31 09:50:31;;;;;;;3.95;2.17;;;;;;;;;;10690831;27;20031;-85
2023/07/31 09:55:32;;;;;;;3.80;2.22;;;;;;;;;;10682272;27;20022;-84
2023/07/31 10:00:33;;;;;;;3.50;2.00;;;;;;;;;;10656909;27;20027;-86
2023/07/31 10:05:36;;;;;;;3.30;2.55;;;;;;;;;;10655202;27;20079;-86
2023/07/31 10:10:45;;;;;;;6.25;2.50;;;;;;;;;;10674141;27;20026;-89
2023/07/31 10:15:46;;;;;;;4.30;2.08;;;;;;;;;;10682457;27;20182;-86
2023/07/31 10:20:47;;;;;;;4.05;2.10;;;;;;;;;;10679394;27;20043;-84
2023/07/31 10:25:54;;;;;;;3.85;2.20;;;;;;;;;;10651659;27;20026;-85
2023/07/31 10:30:55;;;;;;;3.42;2.30;;;;;;;;;;10652642;27;20015;-85
2023/07/31 10:36:17;;;;;;;3.83;2.10;;;;;;;;;;10662036;27;20033;-85
2023/07/31 10:41:19;;;;;;;4.50;2.10;;;;;;;;;;10658897;27;20068;-84
2023/07/31 10:46:20;;;;;;;4.07;2.03;;;;;;;;;;10659493;27;20030;-86
2023/07/31 10:51:22;;;;;;;4.78;2.20;;;;;;;;;;10658299;27;20434;-85
2023/07/31 10:56:26;;;;;;;3.00;2.20;;;;;;;;;;10656657;27;20076;-86
2023/07/31 11:01:47;;;;;;;3.22;1.92;;;;;;;;;;10656815;27;20031;-86
2023/07/31 11:06:58;;;;;;;4.32;2.30;;;;;;;;;;10679507;27;20027;-86
2023/07/31 11:12:00;;;;;;;4.32;2.65;;;;;;;;;;10665227;27;20015;-85
2023/07/31 11:17:06;;;;;;;5.07;3.13;;;;;;;;;;10673242;27;20090;-85
2023/07/31 11:22:07;;;;;;;6.13;2.63;;;;;;;;;;10656071;27;20105;-85
2023/07/31 11:27:09;;;;;;;3.83;2.72;;;;;;;;;;10658104;27;20026;-85
2023/07/31 11:32:17;;;;;;;4.47;3.25;;;;;;;;;;10656668;27;20116;-86
2023/07/31 11:37:18;;;;;;;3.97;2.92;;;;;;;;;;10683553;27;20019;-86
2023/07/31 11:42:19;;;;;;;4.85;2.90;;;;;;;;;;10654744;27;20534;-87
2023/07/31 11:47:20;;;;;;;4.60;3.00;;;;;;;;;;10655162;27;20117;-85
2023/07/31 11:52:23;;;;;;;6.32;3.08;;;;;;;;;;10656056;27;20125;-85
2023/07/31 11:57:24;;;;;;;4.72;2.83;;;;;;;;;;10653090;27;20018;-86
2023/07/31 12:02:25;;;;;;;8.52;6.53;;;;;;;;;;10672886;27;20382;-86
2023/07/31 12:07:43;;;;;;;3.83;2.47;;;;;;;;;;10652168;27;20556;-87
2023/07/31 12:12:55;;;;;;;4.05;2.92;;;;;;;;;;10601080;22;20064;-87
2023/07/31 12:17:56;;;;;;;6.65;3.97;;;;;;;;;;10543759;28;20062;-85
2023/07/31 12:22:58;;;;;;;7.43;2.88;;;;;;;;;;10568462;28;20091;-84
2023/07/31 12:28:05;;;;;;;7.18;2.83;;;;;;;;;;10607780;27;20031;-84
2023/07/31 12:33:16;;;;;;;6.53;2.90;;;;;;;;;;10584956;28;20019;-85
2023/07/31 12:38:17;;;;;;;4.15;2.72;;;;;;;;;;10587203;28;20027;-84
2023/07/31 12:43:18;;;;;;;4.65;2.70;;;;;;;;;;10581756;28;20038;-85
2023/07/31 12:48:19;;;;;;;4.15;2.78;;;;;;;;;;10599244;28;20102;-82
2023/07/31 12:53:20;;;;;;;7.20;2.92;;;;;;;;;;10578868;28;20028;-84
2023/07/31 12:58:21;;;;;;;4.93;2.83;;;;;;;;;;10597512;28;20059;-85
2023/07/31 13:03:22;;;;;;;4.50;2.92;;;;;;;;;;10583106;28;20020;-85
2023/07/31 13:08:23;;;;;;;4.55;2.58;;;;;;;;;;10600144;28;20019;-84
2023/07/31 13:13:24;;;;;;;4.55;2.20;;;;;;;;;;10601024;28;20150;-84
2023/07/31 13:18:25;;;;;;;3.70;2.60;;;;;;;;;;10580062;28;20050;-85
2023/07/31 13:23:29;;;;;;;3.05;2.22;;;;;;;;;;10576862;28;20019;-85
2023/07/31 13:28:30;;;;;;;4.00;2.55;;;;;;;;;;10575848;28;20019;-87
2023/07/31 13:33:31;;;;;;;3.85;2.28;;;;;;;;;;10575433;28;20127;-86
2023/07/31 13:38:32;;;;;;;4.70;2.67;;;;;;;;;;10579527;28;20050;-87
2023/07/31 13:43:33;;;;;;;3.88;2.35;;;;;;;;;;10576120;28;20092;-86
2023/07/31 13:48:37;;;;;;;3.35;2.40;;;;;;;;;;10575444;28;20059;-86
2023/07/31 13:53:38;;;;;;;3.20;2.45;;;;;;;;;;10576194;28;20023;-87
2023/07/31 13:58:39;;;;;;;4.05;2.95;;;;;;;;;;10576133;28;20036;-87
2023/07/31 14:03:41;;;;;;;4.97;2.55;;;;;;;;;;10590314;28;20028;-86
2023/07/31 14:08:42;;;;;;;4.43;2.97;;;;;;;;;;10575653;28;20069;-87
2023/07/31 14:13:43;;;;;;;3.17;2.60;;;;;;;;;;10583597;28;20043;-87
2023/07/31 14:18:48;;;;;;;3.88;2.17;;;;;;;;;;10582094;28;20471;-87
2023/07/31 14:23:49;;;;;;;3.35;2.20;;;;;;;;;;10580507;28;20031;-87
2023/07/31 14:28:51;;;;;;;3.42;2.50;;;;;;;;;;10598896;28;20058;-87
2023/07/31 14:33:53;;;;;;;5.15;2.38;;;;;;;;;;10563606;28;20033;-88
2023/07/31 14:38:54;;;;;;;5.03;3.00;;;;;;;;;;10584077;28;20390;-86
2023/07/31 14:43:55;;;;;;;3.38;2.25;;;;;;;;;;10581886;28;20050;-85
2023/07/31 14:48:56;;;;;;;4.43;3.03;;;;;;;;;;10579943;28;20024;-86
2023/07/31 14:53:57;;;;;;;4.53;2.88;;;;;;;;;;10601628;28;20024;-86
2023/07/31 14:58:58;;;;;;;3.17;2.60;;;;;;;;;;10587978;28;20023;-87
2023/07/31 15:03:59;;;;;;;3.42;2.55;;;;;;;;;;10583944;28;20054;-87
2023/07/31 15:09:00;;;;;;;5.93;2.70;;;;;;;;;;10585632;28;20060;-86
2023/07/31 15:14:01;;;;;;;3.90;2.70;;;;;;;;;;10580974;28;20082;-87
2023/07/31 15:19:02;;;;;;;5.20;2.38;;;;;;;;;;10583410;28;20034;-86
2023/07/31 15:24:03;;;;;;;3.67;2.83;;;;;;;;;;10584426;28;20026;-86
2023/07/31 15:29:08;;;;;;;4.13;2.60;;;;;;;;;;10579686;28;20479;-85
2023/07/31 15:34:09;;;;;;;3.40;2.45;;;;;;;;;;10582219;28;20046;-86
2023/07/31 15:39:10;;;;;;;5.32;2.70;;;;;;;;;;10580177;28;20024;-86
2023/07/31 15:44:11;;;;;;;4.95;2.78;;;;;;;;;;10577141;28;20440;-86
2023/07/31 15:49:13;;;;;;;4.10;2.50;;;;;;;;;;10580801;28;20065;-86
2023/07/31 15:54:14;;;;;;;6.00;2.83;;;;;;;;;;10588406;27;20004;-86
2023/07/31 15:59:15;;;;;;;5.40;2.63;;;;;;;;;;10583854;28;20063;-86
2023/07/31 16:04:16;;;;;;;3.38;2.45;;;;;;;;;;10584863;28;20022;-87
2023/07/31 16:09:17;;;;;;;4.70;2.60;;;;;;;;;;10600455;28;20054;-86
2023/07/31 16:14:18;;;;;;;3.33;2.40;;;;;;;;;;10564728;28;20035;-85
2023/07/31 16:19:19;;;;;;;3.97;3.05;;;;;;;;;;10543433;28;20065;-86
2023/07/31 16:24:39;;;;;;;7.00;3.20;;;;;;;;;;10570061;28;20051;-86
2023/07/31 17:21:09;;;;;;;4.38;3.40;;;;;;;;;;10634721;27;20039;-86
2023/07/31 17:37:35;;;;;;;4.53;2.50;;;;;;;;;;10632253;27;20566;-86
2023/07/31 17:42:36;;;;;;;4.03;2.78;;;;;;;;;;10623418;27;20015;-87
2023/07/31 17:47:37;;;;;;;3.47;2.65;;;;;;;;;;10654561;28;20080;-87
2023/07/31 17:52:38;;;;;;;5.22;3.75;;;;;;;;;;10632459;28;20078;-87
2023/07/31 17:57:39;;;;;;;4.50;2.92;;;;;;;;;;10613697;28;20039;-87
2023/07/31 18:02:40;;;;;;;8.30;3.42;;;;;;;;;;10611860;28;20121;-87
2023/07/31 18:07:41;;;;;;;11.10;4.93;;;;;;;;;;10610702;28;20030;-87
2023/07/31 18:13:06;;;;;;;9.70;5.07;;;;;;;;;;10586280;22;20048;-85
2023/07/31 18:23:50;;;;;;;9.77;3.83;;;;;;;;;;10547372;28;20035;-85
2023/07/31 18:35:02;;;;;;;14.38;6.28;;;;;;;;;;10457456;28;20033;-85
2023/07/31 19:03:13;;;;;;;6.75;3.22;;;;;;;;;;10549376;28;20020;-85
2023/07/31 19:08:20;;;;;;;9.13;3.90;;;;;;;;;;10535762;28;20470;-86
2023/07/31 19:13:26;;;;;;;5.28;2.53;;;;;;;;;;10529313;28;20475;-86
